^^
Saratoga-Weather Station Historical Data
Daily Summary for September 10, 2020 Units:  English    Metric   Both
Daily Weekly Monthly Yearly Custom
  High: Low: Average:
Temperature: 72.7 °F 62.4 °F 67.6 °F
Dew Point: 59.4 °F 53.6 °F 57.4 °F
Humidity: 85% 59% 70%
Wind Speed: 14mph 0mph 3.7mph
Wind Gust: 14mph - -
Wind- - West
Pressure: 30.1 in 29.8 in -
Precipitation: 0 in    
Historical Graphs
 
 
Tabular Data for September 10, 2020
Time Temperature Dew Point Pressure Wind Wind Speed Wind Gust Humidity Rainfall Rate (Hourly) solar
00:01 70.3 °F 58.8 °F 29.8 in Calm     67% 0 in 0 W/m2
00:06 70 °F 58.5 °F 29.8 in Calm     67% 0 in 0 W/m2
00:11 69.8 °F 58.3 °F 29.8 in Calm     67% 0 in 0 W/m2
00:17 69.6 °F 58.6 °F 29.8 in Calm     68% 0 in 0 W/m2
00:22 69.4 °F 58.5 °F 29.8 in Calm     68% 0 in 0 W/m2
00:27 69.3 °F 58.3 °F 29.8 in Calm     68% 0 in 0 W/m2
00:32 69.3 °F 58.6 °F 29.8 in Calm     69% 0 in 0 W/m2
00:37 69.1 °F 58.5 °F 29.8 in Calm     69% 0 in 0 W/m2
00:42 69.1 °F 58.5 °F 29.8 in Calm     69% 0 in 0 W/m2
00:47 69.1 °F 58.5 °F 29.8 in Calm     69% 0 in 0 W/m2
00:52 69.1 °F 58.5 °F 29.8 in Calm     69% 0 in 0 W/m2
00:57 69.1 °F 58.5 °F 29.8 in SSE 0.9 mph 1 mph 69% 0 in 0 W/m2
01:02 69.1 °F 58.5 °F 29.8 in Calm     69% 0 in 0 W/m2
01:07 69.1 °F 58.1 °F 29.8 in Calm   1 mph 68% 0 in 0 W/m2
01:12 69.3 °F 58.3 °F 29.8 in Calm   1 mph 68% 0 in 0 W/m2
01:17 69.3 °F 58.3 °F 29.8 in SSE 2 mph 2 mph 68% 0 in 0 W/m2
01:22 69.4 °F 58.5 °F 29.8 in ENE 0.9 mph 1 mph 68% 0 in 0 W/m2
01:27 70.2 °F 57.9 °F 29.8 in South 0.9 mph 3 mph 65% 0 in 0 W/m2
01:32 71.1 °F 57.7 °F 29.8 in WNW 0.9 mph 1 mph 63% 0 in 0 W/m2
01:37 71.4 °F 58.1 °F 29.8 in West 0.9 mph 1 mph 63% 0 in 0 W/m2
01:42 71.2 °F 58.8 °F 29.8 in East 4 mph 4 mph 65% 0 in 0 W/m2
01:47 71.8 °F 58.1 °F 29.8 in WNW 0.9 mph 3 mph 62% 0 in 0 W/m2
01:52 72.1 °F 57.9 °F 29.8 in NNW 0.9 mph 2 mph 61% 0 in 0 W/m2
01:57 72.1 °F 57.6 °F 29.8 in Calm   1 mph 60% 0 in 0 W/m2
02:02 72.1 °F 57.9 °F 29.8 in Calm   1 mph 61% 0 in 0 W/m2
02:07 72 °F 58.3 °F 29.8 in NE 0.9 mph 1 mph 62% 0 in 0 W/m2
02:12 72 °F 58.3 °F 29.8 in Calm   1 mph 62% 0 in 0 W/m2
02:17 72.3 °F 57.7 °F 29.8 in Calm     60% 0 in 0 W/m2
02:22 72.3 °F 57.7 °F 29.8 in NW 0.9 mph 1 mph 60% 0 in 0 W/m2
02:27 72.1 °F 57.9 °F 29.8 in Calm     61% 0 in 0 W/m2
02:33 72 °F 57.4 °F 29.8 in SW 0.9 mph 1 mph 60% 0 in 0 W/m2
02:38 72 °F 57.4 °F 29.8 in NNE 0.9 mph 1 mph 60% 0 in 0 W/m2
02:43 72.1 °F 57.6 °F 29.8 in NW 2.9 mph 4 mph 60% 0 in 0 W/m2
02:48 72.3 °F 57.7 °F 29.8 in NW 0.9 mph 2 mph 60% 0 in 0 W/m2
02:53 72.3 °F 57.7 °F 29.8 in NW 2.9 mph 7 mph 60% 0 in 0 W/m2
02:58 72.1 °F 57.6 °F 29.8 in NW 0.9 mph 3 mph 60% 0 in 0 W/m2
03:03 72.1 °F 57.6 °F 29.8 in WNW 2 mph 2 mph 60% 0 in 0 W/m2
03:08 72 °F 57.4 °F 29.8 in WSW 0.9 mph 3 mph 60% 0 in 0 W/m2
03:13 71.8 °F 57.6 °F 29.8 in WNW 2 mph 5 mph 61% 0 in 0 W/m2
03:18 71.8 °F 57.6 °F 29.8 in NW 2.9 mph 6 mph 61% 0 in 0 W/m2
03:23 71.4 °F 57.2 °F 29.8 in SSW 0.9 mph 4 mph 61% 0 in 0 W/m2
03:28 71.2 °F 57 °F 29.8 in WNW 2 mph 3 mph 61% 0 in 0 W/m2
03:33 71.1 °F 57.4 °F 29.8 in NW 2 mph 2 mph 62% 0 in 0 W/m2
03:38 70.9 °F 57.7 °F 29.8 in WNW 0.9 mph 6 mph 63% 0 in 0 W/m2
03:43 70.5 °F 57.4 °F 29.8 in West 2 mph 4 mph 63% 0 in 0 W/m2
03:48 70.2 °F 57.4 °F 29.8 in Calm   5 mph 64% 0 in 0 W/m2
03:53 70 °F 57.2 °F 29.8 in NW 2.9 mph 4 mph 64% 0 in 0 W/m2
03:58 69.6 °F 57.4 °F 29.8 in WSW 2.9 mph 4 mph 65% 0 in 0 W/m2
04:03 69.4 °F 57.2 °F 29.8 in West 2 mph 3 mph 65% 0 in 0 W/m2
04:09 69.3 °F 57.4 °F 29.8 in SW 2.9 mph 4 mph 66% 0 in 0 W/m2
04:14 68.9 °F 57 °F 29.8 in WSW 2.9 mph 8 mph 66% 0 in 0 W/m2
04:19 68.7 °F 57.4 °F 29.8 in NW 4.9 mph 6 mph 67% 0 in 0 W/m2
04:24 68.5 °F 57.2 °F 29.8 in West 2.9 mph 8 mph 67% 0 in 0 W/m2
04:29 68.4 °F 57.4 °F 29.8 in NW 4 mph 5 mph 68% 0 in 0 W/m2
04:34 68.2 °F 57.2 °F 29.8 in WSW 2.9 mph 11 mph 68% 0 in 0 W/m2
04:39 67.8 °F 56.8 °F 29.8 in West 4 mph 6 mph 68% 0 in 0 W/m2
04:44 67.6 °F 57 °F 29.8 in NW 4.9 mph 11 mph 69% 0 in 0 W/m2
04:49 67.5 °F 57.4 °F 29.8 in WSW 2.9 mph 7 mph 70% 0 in 0 W/m2
04:54 67.1 °F 57 °F 29.8 in WSW 4 mph 7 mph 70% 0 in 0 W/m2
04:59 66.9 °F 57.2 °F 29.8 in WSW 10.1 mph 10 mph 71% 0 in 0 W/m2
05:04 66.7 °F 57.4 °F 29.8 in NW 4 mph 8 mph 72% 0 in 0 W/m2
05:09 66.6 °F 57.6 °F 29.8 in West 4 mph 10 mph 73% 0 in 0 W/m2
05:14 66.2 °F 57.7 °F 29.8 in WNW 2.9 mph 6 mph 74% 0 in 0 W/m2
05:19 66 °F 57.9 °F 29.8 in WNW 4.9 mph 10 mph 75% 0 in 0 W/m2
05:24 65.8 °F 57.7 °F 29.8 in West 6.9 mph 9 mph 75% 0 in 0 W/m2
05:29 65.7 °F 58.3 °F 29.8 in West 6.9 mph 8 mph 77% 0 in 0 W/m2
05:34 65.5 °F 58.1 °F 29.8 in West 2.9 mph 8 mph 77% 0 in 0 W/m2
05:39 65.3 °F 58.3 °F 29.8 in West 6.9 mph 10 mph 78% 0 in 0 W/m2
05:44 65.1 °F 58.1 °F 29.8 in West 2.9 mph 8 mph 78% 0 in 0 W/m2
05:49 64.9 °F 58.3 °F 29.8 in WSW 8.1 mph 9 mph 79% 0 in 0 W/m2
05:54 64.8 °F 58.1 °F 29.8 in WSW 10.1 mph 10 mph 79% 0 in 5 W/m2
05:59 64.8 °F 58.1 °F 29.8 in WSW 8.1 mph 8 mph 79% 0 in 9 W/m2
06:04 64.6 °F 58.3 °F 29.8 in West 6 mph 10 mph 80% 0 in 11 W/m2
06:09 64.2 °F 57.9 °F 29.8 in West 2.9 mph 6 mph 80% 0 in 16 W/m2
06:14 64 °F 58.1 °F 29.8 in WNW 9 mph 9 mph 81% 0 in 18 W/m2
06:19 63.9 °F 57.9 °F 29.8 in WNW 2.9 mph 7 mph 81% 0 in 23 W/m2
06:24 63.9 °F 57.9 °F 29.8 in WSW 4 mph 8 mph 81% 0 in 25 W/m2
06:29 63.9 °F 58.3 °F 29.8 in WNW 2.9 mph 10 mph 82% 0 in 26 W/m2
06:34 63.9 °F 57.9 °F 29.8 in WNW 8.1 mph 8 mph 81% 0 in 33 W/m2
06:39 63.9 °F 57.9 °F 29.8 in West 4 mph 9 mph 81% 0 in 33 W/m2
06:44 63.9 °F 58.3 °F 29.8 in WSW 4 mph 4 mph 82% 0 in 32 W/m2
06:49 63.9 °F 58.3 °F 29.8 in West 2.9 mph 7 mph 82% 0 in 28 W/m2
06:54 63.7 °F 58.1 °F 29.8 in West 6.9 mph 7 mph 82% 0 in 32 W/m2
06:59 63.5 °F 57.9 °F 29.8 in WNW 4 mph 4 mph 82% 0 in 32 W/m2
07:04 63.3 °F 58.1 °F 29.8 in West 6 mph 9 mph 83% 0 in 30 W/m2
07:09 63.1 °F 57.9 °F 29.8 in West 2 mph 4 mph 83% 0 in 32 W/m2
07:14 63.1 °F 57.9 °F 29.8 in WNW 2.9 mph 9 mph 83% 0 in 37 W/m2
07:19 63.1 °F 57.9 °F 29.8 in West 6.9 mph 7 mph 83% 0 in 51 W/m2
07:24 63.1 °F 57.9 °F 29.8 in WSW 4.9 mph 7 mph 83% 0 in 53 W/m2
07:29 63.3 °F 58.1 °F 29.8 in WNW 4 mph 7 mph 83% 0 in 47 W/m2
07:34 63.3 °F 58.1 °F 29.8 in WNW 0.9 mph 8 mph 83% 0 in 51 W/m2
07:39 63.1 °F 57.9 °F 29.8 in West 0.9 mph 9 mph 83% 0 in 53 W/m2
07:44 63 °F 57.7 °F 29.8 in West 6 mph 8 mph 83% 0 in 53 W/m2
07:49 62.8 °F 57.6 °F 29.8 in WSW 4 mph 10 mph 83% 0 in 46 W/m2
07:54 62.4 °F 57.6 °F 29.8 in WNW 2 mph 8 mph 84% 0 in 60 W/m2
07:59 62.4 °F 57.9 °F 29.8 in West 4 mph 8 mph 85% 0 in 172 W/m2
08:04 62.8 °F 57.9 °F 29.8 in WNW 4 mph 8 mph 84% 0 in 90 W/m2
08:09 62.8 °F 57.9 °F 29.8 in WNW 2.9 mph 8 mph 84% 0 in 77 W/m2
08:14 62.8 °F 57.9 °F 29.9 in WNW 2.9 mph 8 mph 84% 0 in 72 W/m2
08:19 62.8 °F 57.9 °F 29.9 in WNW 2 mph 6 mph 84% 0 in 100 W/m2
08:24 63 °F 58.1 °F 29.9 in SW 2.9 mph 8 mph 84% 0 in 97 W/m2
08:29 63 °F 58.1 °F 29.9 in WNW 4.9 mph 8 mph 84% 0 in 93 W/m2
08:34 63.1 °F 58.3 °F 29.9 in NW 2 mph 7 mph 84% 0 in 95 W/m2
08:39 63.3 °F 58.5 °F 29.9 in NW 4.9 mph 7 mph 84% 0 in 83 W/m2
08:44 63.7 °F 58.5 °F 29.9 in NW 4 mph 7 mph 83% 0 in 91 W/m2
08:49 63.9 °F 58.6 °F 29.9 in West 2 mph 10 mph 83% 0 in 90 W/m2
08:54 63.9 °F 58.6 °F 29.9 in West 6.9 mph 10 mph 83% 0 in 74 W/m2
08:59 64 °F 58.8 °F 29.9 in NW 4 mph 6 mph 83% 0 in 86 W/m2
09:04 64 °F 58.5 °F 29.9 in West 6 mph 9 mph 82% 0 in 97 W/m2
09:09 64.2 °F 58.6 °F 29.9 in WNW 4 mph 7 mph 82% 0 in 93 W/m2
09:14 64.2 °F 58.6 °F 29.9 in WNW 4 mph 11 mph 82% 0 in 76 W/m2
09:19 64.2 °F 58.6 °F 29.9 in West 4 mph 10 mph 82% 0 in 86 W/m2
09:24 64.4 °F 58.5 °F 29.9 in WNW 8.1 mph 11 mph 81% 0 in 127 W/m2
09:29 64.6 °F 58.6 °F 29.9 in WNW 2.9 mph 7 mph 81% 0 in 139 W/m2
09:34 64.8 °F 58.5 °F 29.9 in WNW 2 mph 10 mph 80% 0 in 163 W/m2
09:39 65.1 °F 58.8 °F 29.9 in WSW 4.9 mph 8 mph 80% 0 in 239 W/m2
09:44 65.7 °F 59 °F 29.9 in NNW 2.9 mph 9 mph 79% 0 in 290 W/m2
09:49 65.8 °F 58.8 °F 29.9 in WNW 4 mph 8 mph 78% 0 in 127 W/m2
09:54 66 °F 59 °F 29.9 in WNW 4 mph 6 mph 78% 0 in 121 W/m2
09:59 65.8 °F 58.8 °F 29.9 in SSW 2 mph 12 mph 78% 0 in 105 W/m2
10:04 65.7 °F 58.3 °F 29.9 in West 12.1 mph 12 mph 77% 0 in 139 W/m2
10:10 65.7 °F 58.6 °F 29.9 in WNW 8.1 mph 9 mph 78% 0 in 193 W/m2
10:15 65.8 °F 58.5 °F 29.9 in WNW 6.9 mph 11 mph 77% 0 in 109 W/m2
10:20 65.8 °F 58.5 °F 29.9 in West 4 mph 9 mph 77% 0 in 53 W/m2
10:25 65.7 °F 58.3 °F 29.9 in West 6.9 mph 8 mph 77% 0 in 155 W/m2
10:30 65.7 °F 58.6 °F 29.9 in WSW 4.9 mph 9 mph 78% 0 in 123 W/m2
10:35 65.7 °F 58.6 °F 29.9 in SW 2 mph 4 mph 78% 0 in 155 W/m2
10:40 65.7 °F 59.4 °F 29.9 in West 2.9 mph 6 mph 80% 0 in 142 W/m2
10:45 65.1 °F 59.2 °F 29.9 in West 2.9 mph 7 mph 81% 0 in 248 W/m2
10:50 64.9 °F 59 °F 29.9 in NW 6 mph 8 mph 81% 0 in 130 W/m2
10:55 64.6 °F 59 °F 29.9 in SW 4 mph 4 mph 82% 0 in 156 W/m2
11:00 64.6 °F 58.6 °F 29.9 in SW 4.9 mph 6 mph 81% 0 in 167 W/m2
11:05 64.6 °F 58.6 °F 29.9 in West 6 mph 7 mph 81% 0 in 206 W/m2
11:10 64.8 °F 58.5 °F 29.9 in West 10.1 mph 13 mph 80% 0 in 253 W/m2
11:15 65.1 °F 58.8 °F 29.9 in West 6 mph 8 mph 80% 0 in 243 W/m2
11:20 65.5 °F 59.2 °F 29.9 in WNW 4 mph 11 mph 80% 0 in 338 W/m2
11:25 65.8 °F 59.2 °F 29.9 in NE 0.9 mph 5 mph 79% 0 in 230 W/m2
11:30 66 °F 59 °F 29.9 in West 2.9 mph 8 mph 78% 0 in 274 W/m2
11:35 66.4 °F 59.4 °F 29.9 in West 2.9 mph 3 mph 78% 0 in 281 W/m2
11:40 66.4 °F 59 °F 29.9 in West 2.9 mph 5 mph 77% 0 in 202 W/m2
11:45 66.6 °F 59.2 °F 29.9 in WNW 8.1 mph 8 mph 77% 0 in 272 W/m2
11:50 66.7 °F 59 °F 29.9 in WNW 2.9 mph 12 mph 76% 0 in 352 W/m2
11:55 66.7 °F 59 °F 29.9 in NW 8.1 mph 10 mph 76% 0 in 237 W/m2
12:00 66.7 °F 59 °F 29.9 in WNW 4 mph 5 mph 76% 0 in 209 W/m2
12:05 66.7 °F 58.6 °F 29.9 in WNW 4 mph 9 mph 75% 0 in 232 W/m2
12:10 67.3 °F 59 °F 29.9 in WNW 4.9 mph 8 mph 75% 0 in 265 W/m2
12:15 67.5 °F 58.8 °F 29.9 in WNW 4 mph 8 mph 74% 0 in 332 W/m2
12:20 67.8 °F 58.8 °F 29.9 in West 2 mph 8 mph 73% 0 in 448 W/m2
12:25 68.4 °F 58.3 °F 29.9 in WNW 4.9 mph 11 mph 70% 0 in 448 W/m2
12:30 68.5 °F 57.6 °F 29.9 in West 11 mph 13 mph 68% 0 in 394 W/m2
12:36 68.5 °F 58.3 °F 29.9 in NW 2 mph 7 mph 70% 0 in 545 W/m2
12:41 69.1 °F 58.5 °F 29.9 in WNW 4 mph 11 mph 69% 0 in 446 W/m2
12:46 69.3 °F 57.9 °F 29.9 in WNW 2.9 mph 9 mph 67% 0 in 483 W/m2
12:51 69.4 °F 57.9 °F 29.9 in West 6 mph 10 mph 67% 0 in 369 W/m2
12:56 69.3 °F 57.9 °F 29.9 in West 6.9 mph 8 mph 67% 0 in 302 W/m2
13:01 69.1 °F 58.1 °F 29.9 in NW 6 mph 10 mph 68% 0 in 230 W/m2
13:06 68.7 °F 57.7 °F 29.9 in NW 2.9 mph 10 mph 68% 0 in 255 W/m2
13:11 68.7 °F 57.7 °F 29.9 in WNW 0.9 mph 10 mph 68% 0 in 211 W/m2
13:16 68.5 °F 57.9 °F 29.9 in West 6 mph 6 mph 69% 0 in 230 W/m2
13:21 68.5 °F 57.9 °F 29.9 in WNW 2.9 mph 5 mph 69% 0 in 357 W/m2
13:26 68.7 °F 58.1 °F 29.9 in WNW 2 mph 6 mph 69% 0 in 362 W/m2
13:31 69.1 °F 58.5 °F 29.9 in SW 4 mph 9 mph 69% 0 in 350 W/m2
13:36 69.4 °F 58.5 °F 29.9 in WNW 4 mph 4 mph 68% 0 in 294 W/m2
13:41 69.6 °F 58.1 °F 29.9 in NNW 8.1 mph 10 mph 67% 0 in 339 W/m2
13:46 70 °F 58.1 °F 29.9 in WNW 4.9 mph 13 mph 66% 0 in 656 W/m2
13:51 70.5 °F 59 °F 29.9 in North 0.9 mph 7 mph 67% 0 in 863 W/m2
13:56 71.1 °F 58.6 °F 29.9 in West 4 mph 13 mph 65% 0 in 740 W/m2
14:01 71.8 °F 58.5 °F 29.9 in SW 6 mph 9 mph 63% 0 in 1063 W/m2
14:06 72 °F 57.7 °F 29.9 in NNW 4.9 mph 14 mph 61% 0 in 824 W/m2
14:11 72.1 °F 58.5 °F 29.9 in WNW 8.1 mph 10 mph 62% 0 in 439 W/m2
14:16 72.1 °F 57.9 °F 29.9 in West 6 mph 10 mph 61% 0 in 497 W/m2
14:21 72.7 °F 57.6 °F 29.9 in West 4 mph 10 mph 59% 0 in 772 W/m2
14:26 72.7 °F 57.6 °F 29.9 in West 8.1 mph 8 mph 59% 0 in 494 W/m2
14:31 72.7 °F 57.9 °F 29.9 in West 6 mph 7 mph 60% 0 in 432 W/m2
14:36 72 °F 57.4 °F 29.9 in WNW 2.9 mph 12 mph 60% 0 in 255 W/m2
14:41 71.8 °F 58.1 °F 29.9 in WNW 4.9 mph 9 mph 62% 0 in 169 W/m2
14:46 71.4 °F 57.7 °F 29.9 in West 6.9 mph 12 mph 62% 0 in 197 W/m2
14:51 71.2 °F 57.6 °F 29.9 in NNW 6 mph 9 mph 62% 0 in 281 W/m2
14:56 71.2 °F 57.6 °F 29.9 in NW 4 mph 11 mph 62% 0 in 410 W/m2
15:01 71.4 °F 57.7 °F 29.9 in West 6 mph 6 mph 62% 0 in 327 W/m2
15:06 71.4 °F 57.7 °F 29.9 in West 8.1 mph 11 mph 62% 0 in 287 W/m2
15:11 71.2 °F 57.6 °F 29.9 in SW 2.9 mph 8 mph 62% 0 in 216 W/m2
15:16 71.2 °F 57.6 °F 29.9 in NW 4.9 mph 7 mph 62% 0 in 260 W/m2
15:21 71.1 °F 57.4 °F 29.9 in WSW 4 mph 10 mph 62% 0 in 255 W/m2
15:31 70.9 °F 56.8 °F 29.9 in WSW 4.9 mph 11 mph 61% 0 in 197 W/m2
15:36 70.5 °F 56.8 °F 30 in WSW 14 mph 14 mph 62% 0 in 209 W/m2
15:46 70.3 °F 57.2 °F 30 in NW 6 mph 10 mph 63% 0 in 251 W/m2
15:51 70.3 °F 57.2 °F 30 in WNW 4 mph 12 mph 63% 0 in 255 W/m2
15:56 70.2 °F 57 °F 30 in NW 8.9 mph 9 mph 63% 0 in 236 W/m2
16:01 70.2 °F 57 °F 30 in NW 4 mph 9 mph 63% 0 in 225 W/m2
16:06 70.2 °F 57 °F 30 in NW 4.9 mph 8 mph 63% 0 in 202 W/m2
16:11 70.2 °F 57.4 °F 30 in WNW 2.9 mph 5 mph 64% 0 in 211 W/m2
16:16 70 °F 57.2 °F 30 in WNW 2.9 mph 8 mph 64% 0 in 230 W/m2
16:21 70.2 °F 57.4 °F 30 in WNW 2.9 mph 8 mph 64% 0 in 269 W/m2
16:26 70.2 °F 57.4 °F 30 in WSW 4.9 mph 6 mph 64% 0 in 292 W/m2
16:31 70.2 °F 57.4 °F 30 in WSW 2.9 mph 5 mph 64% 0 in 272 W/m2
16:36 70.3 °F 56.7 °F 30 in WSW 8.9 mph 9 mph 62% 0 in 241 W/m2
16:41 70.2 °F 56.5 °F 30 in West 6 mph 10 mph 62% 0 in 232 W/m2
16:47 70.2 °F 56.5 °F 30 in West 2 mph 7 mph 62% 0 in 227 W/m2
16:52 70.2 °F 56.5 °F 30 in WSW 8.9 mph 9 mph 62% 0 in 229 W/m2
16:57 70.2 °F 57 °F 30 in WNW 2.9 mph 5 mph 63% 0 in 232 W/m2
17:02 70.2 °F 57 °F 30 in West 8.9 mph 9 mph 63% 0 in 216 W/m2
17:07 70.2 °F 57 °F 30 in West 2 mph 9 mph 63% 0 in 183 W/m2
17:12 70.2 °F 57 °F 30 in West 2.9 mph 12 mph 63% 0 in 179 W/m2
17:17 69.8 °F 56.7 °F 30 in WNW 2.9 mph 9 mph 63% 0 in 179 W/m2
17:22 69.6 °F 56.5 °F 30 in West 8.1 mph 13 mph 63% 0 in 169 W/m2
17:27 69.4 °F 56.3 °F 30 in West 6 mph 8 mph 63% 0 in 167 W/m2
17:32 69.4 °F 55.9 °F 30 in West 6.9 mph 10 mph 62% 0 in 193 W/m2
17:37 69.4 °F 56.3 °F 30 in SW 4.9 mph 6 mph 63% 0 in 204 W/m2
17:42 69.4 °F 55.9 °F 30 in West 8.1 mph 10 mph 62% 0 in 190 W/m2
17:47 69.4 °F 55.9 °F 30 in WSW 6.9 mph 8 mph 62% 0 in 174 W/m2
17:52 69.3 °F 55.8 °F 30 in WNW 10 mph 10 mph 62% 0 in 179 W/m2
17:57 69.3 °F 55.8 °F 30 in WNW 4 mph 6 mph 62% 0 in 176 W/m2
18:02 69.3 °F 55.8 °F 30 in WNW 2.9 mph 4 mph 62% 0 in 162 W/m2
18:07 69.4 °F 55.9 °F 30 in West 2.9 mph 6 mph 62% 0 in 155 W/m2
18:12 69.4 °F 55.9 °F 30 in NW 0.9 mph 4 mph 62% 0 in 155 W/m2
18:17 69.4 °F 55.9 °F 30 in WNW 4 mph 8 mph 62% 0 in 148 W/m2
18:22 69.4 °F 56.3 °F 30 in WNW 4 mph 5 mph 63% 0 in 139 W/m2
18:27 69.3 °F 56.1 °F 30 in West 2 mph 4 mph 63% 0 in 121 W/m2
18:32 69.3 °F 56.1 °F 30 in WNW 2 mph 6 mph 63% 0 in 121 W/m2
18:37 69.1 °F 55.9 °F 30 in WNW 2 mph 3 mph 63% 0 in 139 W/m2
18:42 69.1 °F 55.9 °F 30 in WNW 0.9 mph 5 mph 63% 0 in 135 W/m2
18:47 69.1 °F 55.9 °F 30 in WNW 2.9 mph 4 mph 63% 0 in 134 W/m2
18:52 69.1 °F 56.5 °F 30 in WNW 2 mph 4 mph 64% 0 in 123 W/m2
18:57 69.1 °F 56.5 °F 30 in West 2 mph 4 mph 64% 0 in 128 W/m2
19:02 69.3 °F 56.5 °F 30 in WSW 4 mph 4 mph 64% 0 in 149 W/m2
19:07 69.3 °F 56.1 °F 30 in West 0.9 mph 4 mph 63% 0 in 148 W/m2
19:12 69.4 °F 56.7 °F 30 in WSW 4.9 mph 5 mph 64% 0 in 134 W/m2
19:17 69.4 °F 56.7 °F 30 in WNW 4 mph 6 mph 64% 0 in 134 W/m2
19:22 69.4 °F 56.7 °F 30 in WSW 2 mph 3 mph 64% 0 in 146 W/m2
19:27 69.6 °F 56.8 °F 30 in SW 0.9 mph 3 mph 64% 0 in 130 W/m2
19:32 69.4 °F 56.7 °F 30 in WNW 2.9 mph 6 mph 64% 0 in 109 W/m2
19:37 69.4 °F 56.7 °F 30 in West 2 mph 5 mph 64% 0 in 91 W/m2
19:42 69.3 °F 57 °F 30 in SW 2 mph 3 mph 65% 0 in 58 W/m2
19:47 69.3 °F 56.5 °F 30 in WNW 2 mph 7 mph 64% 0 in 21 W/m2
19:52 69.1 °F 56.5 °F 30 in NW 0.9 mph 8 mph 64% 0 in 11 W/m2
19:57 68.5 °F 56.3 °F 30 in WNW 2 mph 6 mph 65% 0 in 7 W/m2
20:02 68.2 °F 56.8 °F 30 in West 2.9 mph 9 mph 67% 0 in 11 W/m2
20:07 67.8 °F 56.5 °F 30 in WNW 2.9 mph 4 mph 67% 0 in 16 W/m2
20:12 67.6 °F 56.3 °F 30 in NW 4 mph 9 mph 67% 0 in 26 W/m2
20:17 67.6 °F 56.3 °F 30 in WNW 2 mph 4 mph 67% 0 in 44 W/m2
20:22 67.5 °F 55.8 °F 30 in NW 8.1 mph 8 mph 66% 0 in 62 W/m2
20:27 67.6 °F 55.4 °F 30 in NW 4.9 mph 7 mph 65% 0 in 123 W/m2
20:32 68.2 °F 55.6 °F 30 in WNW 2 mph 8 mph 64% 0 in 109 W/m2
20:37 68.4 °F 55.8 °F 30 in NNW 4 mph 5 mph 64% 0 in 114 W/m2
20:42 68.4 °F 55.2 °F 30 in West 6 mph 8 mph 63% 0 in 109 W/m2
20:47 68.2 °F 55.6 °F 30 in SW 4.9 mph 7 mph 64% 0 in 100 W/m2
20:52 68 °F 54.9 °F 30 in NNW 2.9 mph 8 mph 63% 0 in 123 W/m2
20:57 67.8 °F 54.7 °F 30 in West 8.9 mph 9 mph 63% 0 in 93 W/m2
21:02 67.6 °F 55 °F 30 in NNE 2 mph 5 mph 64% 0 in 67 W/m2
21:07 67.3 °F 54.7 °F 30 in West 6.9 mph 8 mph 64% 0 in 70 W/m2
21:12 66.7 °F 55 °F 30 in West 2 mph 11 mph 66% 0 in 62 W/m2
21:17 66.6 °F 55.2 °F 30 in NNW 2 mph 9 mph 67% 0 in 56 W/m2
21:22 66.2 °F 54.9 °F 30 in NNW 2 mph 8 mph 67% 0 in 49 W/m2
21:27 66 °F 55.2 °F 30 in WNW 2.9 mph 4 mph 68% 0 in 32 W/m2
21:32 65.8 °F 55 °F 30 in West 2.9 mph 7 mph 68% 0 in 32 W/m2
21:37 65.7 °F 55.2 °F 30 in WNW 2.9 mph 3 mph 69% 0 in 28 W/m2
21:43 65.3 °F 55.2 °F 30 in NW 0.9 mph 10 mph 70% 0 in 19 W/m2
21:48 65.1 °F 55 °F 30 in NNW 2 mph 4 mph 70% 0 in 12 W/m2
21:53 64.9 °F 55.4 °F 30 in NNW 4 mph 10 mph 71% 0 in 7 W/m2
21:58 64.9 °F 55.4 °F 30 in West 6.9 mph 7 mph 71% 0 in 0 W/m2
22:03 64.9 °F 55.4 °F 30 in NW 0.9 mph 4 mph 71% 0 in 0 W/m2
22:08 64.8 °F 55.2 °F 30 in West 2.9 mph 4 mph 71% 0 in 0 W/m2
22:13 64.8 °F 55.6 °F 30 in WNW 4 mph 4 mph 72% 0 in 0 W/m2
22:18 64.6 °F 55.4 °F 30 in NW 0.9 mph 3 mph 72% 0 in 0 W/m2
22:23 64.4 °F 55.2 °F 30 in WNW 2 mph 8 mph 72% 0 in 0 W/m2
22:28 64.2 °F 55.4 °F 30 in NW 4 mph 5 mph 73% 0 in 0 W/m2
22:33 64.2 °F 55.4 °F 30 in West 4 mph 8 mph 73% 0 in 0 W/m2
22:38 64 °F 55.2 °F 30 in North 4 mph 4 mph 73% 0 in 0 W/m2
22:43 64 °F 55.2 °F 30 in NW 4.9 mph 8 mph 73% 0 in 0 W/m2
22:48 63.9 °F 55 °F 30 in West 2 mph 5 mph 73% 0 in 0 W/m2
22:53 63.7 °F 54.9 °F 30 in NW 4 mph 8 mph 73% 0 in 0 W/m2
22:58 63.7 °F 54.9 °F 30 in West 0.9 mph 4 mph 73% 0 in 0 W/m2
23:03 63.7 °F 54.9 °F 30 in NW 2 mph 4 mph 73% 0 in 0 W/m2
23:08 63.7 °F 54.9 °F 30 in West 2.9 mph 4 mph 73% 0 in 0 W/m2
23:13 63.5 °F 54.7 °F 30 in NW 0.9 mph 7 mph 73% 0 in 0 W/m2
23:18 63.3 °F 54.5 °F 30 in North 0.9 mph 4 mph 73% 0 in 0 W/m2
23:23 63.3 °F 54.5 °F 30.1 in WNW 2.9 mph 4 mph 73% 0 in 0 W/m2
23:28 63.3 °F 54.5 °F 30 in West 2.9 mph 5 mph 73% 0 in 0 W/m2
23:33 63.1 °F 54 °F 30.1 in WNW 4 mph 7 mph 72% 0 in 0 W/m2
23:38 63.1 °F 54 °F 30.1 in NW 0.9 mph 4 mph 72% 0 in 0 W/m2
23:43 63.1 °F 53.6 °F 30.1 in NW 2 mph 8 mph 71% 0 in 0 W/m2
23:48 63.1 °F 54 °F 30.1 in WNW 2 mph 4 mph 72% 0 in 0 W/m2
23:53 63 °F 53.8 °F 30.1 in NW 0.9 mph 8 mph 72% 0 in 0 W/m2
23:58 63 °F 53.8 °F 30.1 in WNW 4 mph 4 mph 72% 0 in 0 W/m2
Juneau County Weather
Compliments of Weather Underground - 4 mb